createdAt,value
2018-02-03T00:00:04.743Z,953.82
2018-02-03T00:15:04.664Z,953.79
2018-02-03T00:30:05.302Z,954.14
2018-02-03T00:45:05.209Z,953.79
2018-02-03T01:00:04.764Z,953.73
2018-02-03T01:15:04.662Z,953.63
2018-02-03T01:30:06.366Z,953.68
2018-02-03T01:45:08.428Z,953.57
2018-02-03T02:00:04.390Z,953.07
2018-02-03T02:15:05.223Z,953.41
2018-02-03T02:30:04.375Z,953.12
2018-02-03T02:45:05.737Z,953.23
2018-02-03T03:00:05.175Z,953.2
2018-02-03T03:15:04.871Z,953.15
2018-02-03T03:30:04.585Z,953.57
2018-02-03T03:45:08.530Z,953.41
2018-02-03T04:00:05.592Z,953.31
2018-02-03T04:15:04.483Z,953.2
2018-02-03T04:30:04.594Z,953.12
2018-02-03T04:45:04.472Z,953.17
2018-02-03T05:00:04.958Z,953.09
2018-02-03T05:15:04.888Z,952.88
2018-02-03T05:30:04.662Z,952.83
2018-02-03T05:45:05.202Z,953.12
2018-02-03T06:00:05.203Z,953.01
2018-02-03T06:15:04.698Z,952.8
2018-02-03T06:30:04.918Z,952.96
2018-02-03T06:45:04.350Z,952.83
2018-02-03T07:00:05.891Z,952.96
2018-02-03T07:15:05.328Z,952.88
2018-02-03T07:30:07.470Z,953.33
2018-02-03T07:45:05.158Z,953.25
2018-02-03T08:00:04.895Z,953.04
2018-02-03T08:15:04.920Z,953.2
2018-02-03T08:30:05.307Z,952.66
2018-02-03T08:45:05.413Z,952.56
2018-02-03T09:00:04.924Z,952.13
2018-02-03T09:15:05.017Z,951.41
2018-02-03T09:30:05.746Z,951.09
2018-02-03T09:45:05.524Z,951.03
2018-02-03T10:00:04.992Z,951.43
2018-02-03T10:15:05.080Z,951.33
2018-02-03T10:30:05.612Z,950.18
2018-02-03T10:45:04.972Z,950.18
2018-02-03T11:00:07.772Z,949.94
2018-02-03T11:15:05.153Z,949.67
2018-02-03T11:30:04.856Z,949.37
2018-02-03T11:45:05.967Z,949.37
2018-02-03T12:00:04.505Z,949.37
2018-02-03T12:15:04.562Z,949.78
2018-02-03T12:30:04.951Z,949.24
2018-02-03T12:45:08.005Z,949.19
2018-02-03T13:00:20.704Z,948.68
2018-02-03T13:15:05.338Z,948.38
2018-02-03T13:30:16.590Z,948.62
2018-02-03T13:45:05.136Z,948.73
2018-02-03T14:00:04.860Z,948.89
2018-02-03T14:15:04.748Z,948.89
2018-02-03T14:30:05.088Z,949.21
2018-02-03T14:45:04.543Z,948.81
2018-02-03T15:00:04.919Z,948.97
2018-02-03T15:15:04.295Z,949.03
2018-02-03T15:30:04.874Z,949.56
2018-02-03T15:45:04.741Z,949.91
2018-02-03T16:00:05.127Z,950.26
2018-02-03T16:15:05.017Z,950.71
2018-02-03T16:30:04.686Z,950.85
2018-02-03T16:45:05.079Z,951.11
2018-02-03T17:00:04.487Z,951.38
2018-02-03T17:15:04.893Z,951.97
2018-02-03T17:30:04.491Z,951.54
2018-02-03T17:45:06.175Z,952.29
2018-02-03T18:00:04.551Z,952.37
2018-02-03T18:15:04.454Z,952.58
2018-02-03T18:30:05.830Z,952.45
2018-02-03T18:45:05.683Z,952.66
2018-02-03T19:00:05.573Z,952.83
2018-02-03T19:15:08.405Z,953.09
2018-02-03T19:30:05.440Z,953.41
2018-02-03T19:45:04.960Z,953.36
2018-02-03T20:00:05.795Z,953.15
2018-02-03T20:15:05.384Z,953.2
2018-02-03T20:30:06.745Z,953.49
2018-02-03T20:45:06.462Z,953.41
2018-02-03T21:00:05.112Z,953.55
2018-02-03T21:15:04.696Z,953.63
2018-02-03T21:30:07.071Z,953.71
2018-02-03T21:45:05.479Z,953.9
2018-02-03T22:00:04.890Z,954.03
2018-02-03T22:15:04.790Z,954.27
2018-02-03T22:30:04.904Z,954.38
2018-02-03T22:45:05.435Z,954.72
2018-02-03T23:00:04.867Z,954.97
2018-02-03T23:15:04.728Z,955.1
2018-02-03T23:30:04.835Z,955.34
2018-02-03T23:45:04.306Z,955.55
